Time;durP1;ratioP1;P1;durP2;ratioP2;P2;SDS_P1;SDS_P2;PMS_P1;PMS_P2;Temp;Humidity;BMP_temperature;BMP_pressure;BME280_temperature;BME280_humidity;BME280_pressure;Samples;Min_cycle;Max_cycle;Signal;HPM_P1;HPM_P2
2022/10/24 00:00:41;;;;;;;6.85;3.55;;;16.10;99.90;;;;;;5035072;28;20195;-66
2022/10/24 00:03:07;;;;;;;9.63;4.53;;;16.10;99.90;;;;;;5035106;28;20191;-67
2022/10/24 00:05:33;;;;;;;8.15;3.63;;;16.10;99.90;;;;;;5034985;28;20191;-67
2022/10/24 00:07:59;;;;;;;11.40;3.72;;;16.10;99.90;;;;;;5033810;28;20232;-67
2022/10/24 00:10:25;;;;;;;10.40;3.80;;;16.10;99.90;;;;;;5035063;28;20302;-66
2022/10/24 00:12:53;;;;;;;12.23;3.95;;;16.10;99.90;;;;;;5035075;28;20202;-67
2022/10/24 00:15:19;;;;;;;13.95;4.07;;;16.20;99.90;;;;;;5035300;28;20668;-66
2022/10/24 00:17:45;;;;;;;7.45;3.70;;;16.10;99.90;;;;;;5034750;28;20198;-67
2022/10/24 00:20:12;;;;;;;14.57;4.43;;;16.10;99.90;;;;;;5034738;28;20175;-67
2022/10/24 00:22:38;;;;;;;7.55;4.22;;;16.10;99.90;;;;;;5034697;28;20195;-67
2022/10/24 00:25:04;;;;;;;10.15;3.60;;;16.10;99.90;;;;;;5034602;28;20237;-67
2022/10/24 00:27:30;;;;;;;10.55;3.75;;;16.10;99.90;;;;;;5034404;28;20264;-67
2022/10/24 00:29:56;;;;;;;10.70;4.20;;;16.10;99.90;;;;;;5034472;28;20625;-66
2022/10/24 00:32:21;;;;;;;7.35;3.50;;;16.20;99.90;;;;;;5035098;28;20214;-67
2022/10/24 00:34:47;;;;;;;10.57;4.20;;;16.20;99.90;;;;;;5034299;28;20199;-66
2022/10/24 00:37:13;;;;;;;9.70;3.85;;;16.20;99.90;;;;;;5034456;28;20182;-66
2022/10/24 00:39:38;;;;;;;9.63;3.95;;;16.20;99.90;;;;;;5034367;28;20175;-66
2022/10/24 00:42:04;;;;;;;7.80;4.28;;;16.10;99.90;;;;;;5034225;28;20175;-67
2022/10/24 00:44:36;;;;;;;10.13;4.30;;;16.10;99.90;;;;;;5034651;28;20605;-66
2022/10/24 00:47:19;;;;;;;9.40;4.15;;;16.20;99.90;;;;;;5034725;28;20210;-67
2022/10/24 00:50:10;;;;;;;10.32;3.50;;;16.10;99.90;;;;;;5034291;28;20184;-66
2022/10/24 00:52:41;;;;;;;10.23;4.10;;;16.10;99.90;;;;;;5034546;28;20205;-66
2022/10/24 00:55:08;;;;;;;9.63;4.20;;;16.00;99.90;;;;;;5034158;28;20208;-66
2022/10/24 00:57:44;;;;;;;9.57;4.05;;;15.90;99.90;;;;;;5032901;28;20557;-66
2022/10/24 01:00:23;;;;;;;6.15;3.78;;;15.80;99.90;;;;;;5034410;28;20616;-66
2022/10/24 01:02:49;;;;;;;11.48;3.67;;;15.80;99.90;;;;;;5032795;28;20203;-67
2022/10/24 01:05:17;;;;;;;10.30;4.13;;;15.80;99.90;;;;;;5034114;28;20269;-66
2022/10/24 01:07:55;;;;;;;14.07;4.40;;;15.90;99.90;;;;;;5034037;28;20250;-67
2022/10/24 01:10:35;;;;;;;12.00;4.13;;;15.90;99.90;;;;;;5034370;28;20163;-66
2022/10/24 01:13:10;;;;;;;13.07;4.13;;;16.00;99.90;;;;;;5034097;28;20163;-66
2022/10/24 01:15:45;;;;;;;10.57;4.22;;;16.10;99.90;;;;;;5034712;28;20199;-67
2022/10/24 01:18:16;;;;;;;8.18;4.00;;;16.10;99.90;;;;;;5035043;28;20175;-67
2022/10/24 01:21:00;;;;;;;10.35;3.95;;;16.10;99.90;;;;;;5035538;28;20163;-67
2022/10/24 01:23:48;;;;;;;6.55;3.83;;;16.10;99.90;;;;;;5034161;28;20190;-66
2022/10/24 01:26:32;;;;;;;17.30;3.92;;;16.00;99.90;;;;;;5034190;28;20166;-67
2022/10/24 01:29:15;;;;;;;9.15;3.72;;;16.00;99.90;;;;;;5033756;28;20191;-66
2022/10/24 01:31:57;;;;;;;10.98;3.78;;;16.10;99.90;;;;;;5016334;28;20195;-66
2022/10/24 01:34:29;;;;;;;11.98;4.38;;;16.10;99.90;;;;;;5033689;28;20182;-66
2022/10/24 01:37:29;;;;;;;9.63;4.13;;;16.00;99.90;;;;;;5034168;28;20221;-66
2022/10/24 01:40:01;;;;;;;8.38;3.50;;;16.10;99.90;;;;;;5021862;28;20282;-66
2022/10/24 01:42:30;;;;;;;6.60;3.83;;;16.20;99.90;;;;;;5032478;28;20675;-66
2022/10/24 01:44:58;;;;;;;10.05;4.13;;;16.40;99.90;;;;;;5033619;28;20187;-67
2022/10/24 01:47:30;;;;;;;8.50;3.90;;;16.50;99.90;;;;;;5033515;28;20186;-66
2022/10/24 01:50:03;;;;;;;7.43;4.43;;;16.50;99.90;;;;;;5033642;28;20155;-66
2022/10/24 01:52:34;;;;;;;9.02;4.38;;;16.60;99.90;;;;;;5033962;28;20624;-66
2022/10/24 01:55:01;;;;;;;12.60;4.10;;;16.60;99.90;;;;;;5034028;28;20562;-67
2022/10/24 01:57:32;;;;;;;7.20;3.40;;;16.60;99.90;;;;;;5034019;28;20185;-67
2022/10/24 01:59:57;;;;;;;12.32;3.72;;;16.60;99.90;;;;;;5032427;28;20290;-66
2022/10/24 02:02:32;;;;;;;7.60;3.65;;;16.60;99.90;;;;;;5033415;28;20199;-67
2022/10/24 02:05:06;;;;;;;9.52;3.63;;;16.80;99.90;;;;;;5033426;28;20198;-67
2022/10/24 02:07:34;;;;;;;7.47;3.92;;;16.80;99.90;;;;;;5034065;28;20562;-67
2022/10/24 02:10:07;;;;;;;10.98;3.95;;;16.70;99.90;;;;;;5033587;28;20249;-66
2022/10/24 02:12:36;;;;;;;8.30;3.75;;;16.70;99.90;;;;;;5033494;28;20500;-67
2022/10/24 02:15:10;;;;;;;6.97;3.78;;;16.60;99.90;;;;;;5032481;28;20199;-66
2022/10/24 02:17:35;;;;;;;8.70;3.85;;;16.60;99.90;;;;;;5033474;28;20182;-66
2022/10/24 02:20:02;;;;;;;7.93;3.85;;;16.60;99.90;;;;;;5033297;28;20175;-67
2022/10/24 02:22:30;;;;;;;7.32;3.50;;;16.70;99.90;;;;;;5032040;28;20203;-66
2022/10/24 02:25:14;;;;;;;7.95;3.63;;;16.70;99.90;;;;;;5033230;28;20206;-66
2022/10/24 02:27:42;;;;;;;11.00;3.50;;;16.70;99.90;;;;;;5033439;28;20233;-66
2022/10/24 02:30:16;;;;;;;5.75;3.15;;;16.70;99.90;;;;;;5033426;28;20160;-66
2022/10/24 02:32:46;;;;;;;11.23;3.63;;;16.70;99.90;;;;;;5033623;28;20170;-66
2022/10/24 02:35:15;;;;;;;8.70;3.70;;;16.70;99.90;;;;;;5035094;28;20285;-66
2022/10/24 02:37:52;;;;;;;7.55;3.40;;;16.70;99.90;;;;;;5036815;28;20211;-67
2022/10/24 02:40:20;;;;;;;10.35;3.70;;;16.80;99.90;;;;;;5037994;28;20167;-67
2022/10/24 02:42:50;;;;;;;10.23;3.50;;;16.80;99.90;;;;;;5037418;28;20191;-66
2022/10/24 02:45:18;;;;;;;7.60;3.90;;;16.90;99.90;;;;;;5037825;28;20735;-67
2022/10/24 02:47:44;;;;;;;9.10;3.63;;;16.80;99.90;;;;;;5037987;28;20258;-67
2022/10/24 02:50:11;;;;;;;13.13;3.50;;;16.90;99.90;;;;;;5037973;28;20194;-67
2022/10/24 02:52:38;;;;;;;7.20;3.85;;;16.90;99.90;;;;;;5036735;28;20179;-67
2022/10/24 02:55:05;;;;;;;7.55;3.45;;;16.90;99.90;;;;;;5036687;28;20199;-67
2022/10/24 02:57:31;;;;;;;9.98;3.40;;;16.90;99.90;;;;;;5035364;28;20186;-67
2022/10/24 02:59:57;;;;;;;7.65;3.33;;;16.90;99.90;;;;;;5036869;28;20175;-66
2022/10/24 03:02:23;;;;;;;9.55;4.35;;;16.80;99.90;;;;;;5036463;28;20295;-66
2022/10/24 03:04:49;;;;;;;5.88;3.50;;;16.90;99.90;;;;;;5034853;28;20680;-66
2022/10/24 03:07:14;;;;;;;8.63;3.10;;;16.90;99.90;;;;;;5036312;28;20171;-66
2022/10/24 03:09:40;;;;;;;7.40;3.50;;;16.90;99.90;;;;;;5036522;28;20178;-66
2022/10/24 03:12:06;;;;;;;5.95;3.30;;;16.90;99.90;;;;;;5036695;28;20159;-67
2022/10/24 03:14:32;;;;;;;8.73;3.60;;;16.90;99.90;;;;;;5035010;28;20624;-66
2022/10/24 03:16:58;;;;;;;8.65;4.13;;;17.00;99.90;;;;;;5036587;28;20659;-67
2022/10/24 03:19:23;;;;;;;9.10;3.50;;;17.00;99.90;;;;;;5036270;28;20221;-67
2022/10/24 03:21:50;;;;;;;13.50;3.70;;;17.00;99.90;;;;;;5036226;28;20560;-67
2022/10/24 03:24:16;;;;;;;11.95;3.72;;;16.90;99.90;;;;;;5036287;28;20209;-67
2022/10/24 03:26:43;;;;;;;13.70;3.35;;;16.90;99.90;;;;;;5036291;28;20167;-67
2022/10/24 03:29:09;;;;;;;10.35;3.00;;;16.80;99.90;;;;;;5036035;28;20183;-67
2022/10/24 03:31:35;;;;;;;6.63;3.53;;;16.80;99.90;;;;;;5036139;28;20199;-67
2022/10/24 03:34:01;;;;;;;7.95;3.58;;;16.80;99.90;;;;;;5034820;28;20668;-67
2022/10/24 03:36:27;;;;;;;9.07;3.20;;;16.70;99.90;;;;;;5036609;28;20187;-67
2022/10/24 03:38:52;;;;;;;7.50;3.45;;;16.70;99.90;;;;;;5036108;28;20203;-66
2022/10/24 03:41:18;;;;;;;8.32;3.22;;;16.70;99.90;;;;;;5034769;28;20563;-66
2022/10/24 03:43:44;;;;;;;8.77;3.50;;;16.70;99.90;;;;;;5034608;28;20217;-66
2022/10/24 03:46:09;;;;;;;6.07;3.35;;;16.80;99.90;;;;;;5035912;28;20167;-66
2022/10/24 03:48:35;;;;;;;6.93;3.20;;;16.80;99.90;;;;;;5035409;28;20203;-67
2022/10/24 03:51:01;;;;;;;8.70;3.00;;;16.70;99.90;;;;;;5035745;28;20171;-67
2022/10/24 03:53:27;;;;;;;6.43;3.33;;;16.60;99.90;;;;;;5035768;28;20213;-68
2022/10/24 03:55:53;;;;;;;8.15;3.90;;;16.60;99.90;;;;;;5034085;28;20233;-67
2022/10/24 03:58:19;;;;;;;8.57;3.55;;;16.60;99.90;;;;;;5035635;28;20171;-67
2022/10/24 04:00:45;;;;;;;6.28;3.38;;;16.70;99.90;;;;;;5035474;28;20713;-67
2022/10/24 04:03:10;;;;;;;8.57;3.65;;;16.70;99.90;;;;;;5035112;28;20679;-67
2022/10/24 04:05:36;;;;;;;7.68;3.50;;;16.70;99.90;;;;;;5033932;28;20583;-67
2022/10/24 04:08:02;;;;;;;9.38;3.80;;;16.70;99.90;;;;;;5035524;28;20175;-67
2022/10/24 04:10:28;;;;;;;8.60;3.75;;;16.70;99.90;;;;;;5035416;28;20251;-67
2022/10/24 04:12:54;;;;;;;7.70;3.25;;;16.70;99.90;;;;;;5035062;28;20175;-66
2022/10/24 04:15:20;;;;;;;9.30;3.70;;;16.70;99.90;;;;;;5035269;28;20538;-67
2022/10/24 04:17:45;;;;;;;7.88;3.35;;;16.70;99.90;;;;;;5027723;28;20184;-67
2022/10/24 04:20:11;;;;;;;10.10;3.75;;;16.70;99.90;;;;;;5015109;28;20524;-66
2022/10/24 04:22:37;;;;;;;9.48;3.60;;;16.80;99.90;;;;;;5015021;28;20676;-67
2022/10/24 04:25:03;;;;;;;8.43;3.35;;;16.80;99.90;;;;;;5015476;28;20196;-66
2022/10/24 04:27:29;;;;;;;9.70;3.90;;;16.80;99.90;;;;;;5015556;28;20171;-67
2022/10/24 04:29:55;;;;;;;9.40;3.70;;;16.80;99.90;;;;;;5030475;28;20652;-67
2022/10/24 04:32:21;;;;;;;10.25;3.28;;;16.70;99.90;;;;;;5015272;28;20156;-67
2022/10/24 04:34:47;;;;;;;10.23;3.33;;;16.70;99.90;;;;;;5015934;28;20749;-67
2022/10/24 04:37:12;;;;;;;9.55;3.90;;;16.70;99.90;;;;;;5013798;28;20175;-64
2022/10/24 04:39:38;;;;;;;9.05;3.53;;;16.60;99.90;;;;;;5015416;28;20503;-63
2022/10/24 04:42:04;;;;;;;8.07;3.08;;;16.60;99.90;;;;;;5014956;28;20517;-63
2022/10/24 04:44:30;;;;;;;12.73;3.80;;;16.50;99.90;;;;;;5014621;28;20199;-62
2022/10/24 04:46:56;;;;;;;7.40;3.55;;;16.50;99.90;;;;;;5014793;28;20172;-63
2022/10/24 04:49:22;;;;;;;11.10;3.35;;;16.50;99.90;;;;;;5033207;28;20175;-63
2022/10/24 04:51:47;;;;;;;4.88;3.00;;;16.60;99.90;;;;;;5033989;28;20171;-63
2022/10/24 04:54:13;;;;;;;7.38;3.50;;;16.50;99.90;;;;;;5034009;28;20756;-64
2022/10/24 04:56:39;;;;;;;7.45;3.40;;;16.60;99.90;;;;;;5033685;28;20171;-64
2022/10/24 04:59:05;;;;;;;5.60;2.97;;;16.50;99.90;;;;;;5033602;28;20175;-64
2022/10/24 05:01:30;;;;;;;13.65;3.70;;;16.60;99.90;;;;;;5033854;28;20556;-64
2022/10/24 05:03:56;;;;;;;9.20;3.30;;;16.50;99.90;;;;;;5033612;28;20211;-64
2022/10/24 05:06:22;;;;;;;5.13;2.92;;;16.60;99.90;;;;;;5033887;28;20178;-64
2022/10/24 05:08:47;;;;;;;7.75;3.03;;;16.60;99.90;;;;;;5032529;28;20317;-64
2022/10/24 05:11:13;;;;;;;10.15;3.20;;;16.50;99.90;;;;;;5033709;28;20258;-64
2022/10/24 05:13:41;;;;;;;4.50;3.20;;;16.50;99.90;;;;;;5032319;28;20226;-63
2022/10/24 05:16:06;;;;;;;5.90;2.95;;;16.50;99.90;;;;;;5033599;28;20175;-63
2022/10/24 05:18:32;;;;;;;12.07;3.22;;;16.40;99.90;;;;;;5033490;28;20186;-63
2022/10/24 05:20:59;;;;;;;7.63;3.58;;;16.40;99.90;;;;;;5033520;28;20183;-63
2022/10/24 05:23:25;;;;;;;8.32;3.40;;;16.30;99.90;;;;;;5033398;28;20249;-63
2022/10/24 05:25:51;;;;;;;6.32;2.95;;;16.40;99.90;;;;;;5033469;28;20253;-63
2022/10/24 05:28:17;;;;;;;9.27;3.30;;;16.50;99.90;;;;;;5033405;28;20285;-63
2022/10/24 05:30:43;;;;;;;9.40;3.50;;;16.50;99.90;;;;;;5033433;28;20175;-63
2022/10/24 05:33:09;;;;;;;8.15;3.03;;;16.50;99.90;;;;;;5033565;28;20321;-63
2022/10/24 05:35:35;;;;;;;10.38;3.50;;;16.50;99.90;;;;;;5032043;28;20252;-63
2022/10/24 05:38:01;;;;;;;3.83;2.63;;;16.50;99.90;;;;;;5033620;28;20640;-63
2022/10/24 05:40:26;;;;;;;5.50;3.50;;;16.50;99.90;;;;;;5033289;28;20178;-63
2022/10/24 05:42:52;;;;;;;6.00;3.00;;;16.40;99.90;;;;;;5033211;28;20690;-63
2022/10/24 05:45:18;;;;;;;7.80;3.17;;;16.40;99.90;;;;;;5033263;28;20534;-63
2022/10/24 05:47:44;;;;;;;10.50;3.10;;;16.50;99.90;;;;;;5033183;28;20644;-63
2022/10/24 05:50:10;;;;;;;5.22;2.97;;;16.40;99.90;;;;;;5033061;28;20170;-63
2022/10/24 05:52:36;;;;;;;10.07;3.00;;;16.40;99.90;;;;;;5033439;28;20698;-63
2022/10/24 05:55:04;;;;;;;8.57;3.35;;;16.30;99.90;;;;;;5033379;28;20713;-63
2022/10/24 05:57:30;;;;;;;5.80;2.58;;;16.40;99.90;;;;;;5033078;28;20205;-64
2022/10/24 05:59:56;;;;;;;6.20;2.88;;;16.30;99.90;;;;;;5033405;28;20175;-63
2022/10/24 06:02:21;;;;;;;8.63;3.47;;;16.40;99.90;;;;;;5032981;28;20294;-63
2022/10/24 06:04:49;;;;;;;6.68;2.75;;;16.50;99.90;;;;;;5033001;28;20195;-63
2022/10/24 06:07:16;;;;;;;7.15;2.88;;;16.60;99.90;;;;;;5033299;28;20179;-63
2022/10/24 06:09:42;;;;;;;7.05;2.80;;;16.50;99.90;;;;;;5034353;28;20176;-63
2022/10/24 06:12:09;;;;;;;8.05;2.75;;;16.50;99.90;;;;;;5035698;28;20648;-63
2022/10/24 06:14:37;;;;;;;9.32;3.58;;;16.50;99.90;;;;;;5037115;28;20596;-63
2022/10/24 06:17:05;;;;;;;6.53;2.90;;;16.50;99.90;;;;;;5036854;28;20171;-63
2022/10/24 06:19:31;;;;;;;6.32;2.70;;;16.40;99.90;;;;;;5036940;28;20158;-63
2022/10/24 06:21:57;;;;;;;7.60;3.00;;;16.30;99.90;;;;;;5036832;28;20264;-63
2022/10/24 06:24:23;;;;;;;7.10;3.20;;;16.30;99.90;;;;;;5036589;28;20213;-63
2022/10/24 06:26:49;;;;;;;8.88;3.08;;;16.30;99.90;;;;;;5037187;28;20171;-63
2022/10/24 06:29:14;;;;;;;4.57;2.60;;;16.30;99.90;;;;;;5036612;28;20191;-63
2022/10/24 06:31:40;;;;;;;4.75;2.97;;;16.30;99.90;;;;;;5036600;28;20179;-63
2022/10/24 06:34:06;;;;;;;7.93;2.92;;;16.30;99.90;;;;;;5036499;28;20253;-63
2022/10/24 06:36:32;;;;;;;7.82;2.67;;;16.30;99.90;;;;;;5037039;28;20658;-63
2022/10/24 06:38:57;;;;;;;8.90;2.85;;;16.30;99.90;;;;;;5036442;28;20179;-63
2022/10/24 06:41:23;;;;;;;6.57;2.90;;;16.30;99.90;;;;;;5035390;28;20595;-63
2022/10/24 06:43:49;;;;;;;7.82;3.13;;;16.30;99.90;;;;;;5036269;28;20706;-63
2022/10/24 06:46:16;;;;;;;5.32;2.90;;;16.30;99.90;;;;;;5036293;28;20172;-63
2022/10/24 06:48:43;;;;;;;5.45;2.97;;;16.30;99.90;;;;;;5021360;28;20176;-63
2022/10/24 06:51:13;;;;;;;8.18;3.00;;;16.30;99.90;;;;;;5016539;28;20657;-63
2022/10/24 06:53:38;;;;;;;7.47;3.40;;;16.20;99.90;;;;;;5015078;28;20560;-63
2022/10/24 06:56:05;;;;;;;6.93;3.13;;;16.30;99.90;;;;;;5016369;28;20179;-63
2022/10/24 06:58:36;;;;;;;7.50;3.05;;;16.30;99.90;;;;;;5016572;28;20210;-63
2022/10/24 07:01:10;;;;;;;5.75;2.67;;;16.30;99.90;;;;;;5016303;28;20659;-63
2022/10/24 07:03:37;;;;;;;7.35;3.03;;;16.30;99.90;;;;;;5016011;28;20719;-63
2022/10/24 07:06:23;;;;;;;6.93;2.80;;;16.40;99.90;;;;;;5016317;28;20172;-63
2022/10/24 07:08:50;;;;;;;9.55;3.05;;;16.40;99.90;;;;;;5016179;28;20172;-63
2022/10/24 07:11:16;;;;;;;6.47;2.78;;;16.40;99.90;;;;;;5016772;28;20171;-64
2022/10/24 07:13:42;;;;;;;5.10;2.97;;;16.40;99.90;;;;;;5016205;28;20692;-63
2022/10/24 07:16:08;;;;;;;8.25;2.85;;;16.40;99.90;;;;;;5016156;28;20261;-64
2022/10/24 07:18:34;;;;;;;5.60;2.92;;;16.50;99.90;;;;;;5028144;28;20179;-64
2022/10/24 07:21:27;;;;;;;10.23;3.03;;;16.50;99.90;;;;;;5035212;28;20175;-63
2022/10/24 07:23:54;;;;;;;7.93;2.80;;;16.50;99.90;;;;;;5032430;28;20214;-63
2022/10/24 07:26:21;;;;;;;11.07;3.15;;;16.50;99.90;;;;;;5035720;28;20175;-63
2022/10/24 07:28:52;;;;;;;6.03;2.88;;;16.50;99.90;;;;;;5035603;28;20193;-64
2022/10/24 07:31:19;;;;;;;8.30;3.10;;;16.60;99.90;;;;;;5035926;28;20160;-64
2022/10/24 07:33:45;;;;;;;5.57;2.90;;;16.60;99.90;;;;;;5034492;28;20734;-63
2022/10/24 07:36:18;;;;;;;3.17;2.72;;;16.60;99.90;;;;;;5035586;28;20270;-64
2022/10/24 07:38:48;;;;;;;7.65;2.65;;;16.60;99.90;;;;;;5035489;28;20246;-64
2022/10/24 07:41:15;;;;;;;9.10;2.65;;;16.70;99.90;;;;;;5035517;28;20183;-64
2022/10/24 07:43:40;;;;;;;6.38;2.47;;;16.80;99.90;;;;;;5035256;28;20211;-64
2022/10/24 07:46:12;;;;;;;7.65;3.08;;;16.90;99.90;;;;;;5035625;28;20587;-64
2022/10/24 07:48:38;;;;;;;8.38;2.70;;;16.90;99.90;;;;;;5035167;28;20627;-64
2022/10/24 07:51:08;;;;;;;6.70;2.97;;;16.90;99.90;;;;;;5035254;28;20637;-63
2022/10/24 07:53:34;;;;;;;9.48;2.92;;;17.00;99.90;;;;;;5033763;28;20183;-63
2022/10/24 07:56:01;;;;;;;4.20;2.80;;;17.00;99.90;;;;;;5035156;28;20171;-64
2022/10/24 07:58:28;;;;;;;10.80;2.58;;;17.00;99.90;;;;;;5035350;28;20187;-63
2022/10/24 08:00:54;;;;;;;4.38;2.75;;;17.10;99.90;;;;;;5034035;28;20544;-63
2022/10/24 08:03:19;;;;;;;7.55;2.65;;;17.10;99.90;;;;;;5034827;28;20202;-64
2022/10/24 08:05:46;;;;;;;6.75;2.60;;;17.10;99.90;;;;;;5034816;28;20179;-63
2022/10/24 08:08:12;;;;;;;9.45;2.65;;;17.20;99.90;;;;;;5035436;28;20179;-64
2022/10/24 08:10:38;;;;;;;5.00;2.72;;;17.30;99.90;;;;;;5035359;28;20159;-63
2022/10/24 08:13:04;;;;;;;7.97;3.05;;;17.40;99.90;;;;;;5035305;28;20250;-64
2022/10/24 08:15:29;;;;;;;7.70;2.60;;;17.50;99.90;;;;;;5034631;28;20195;-64
2022/10/24 08:17:55;;;;;;;6.57;2.50;;;17.60;99.90;;;;;;5034585;28;20182;-64
2022/10/24 08:20:25;;;;;;;7.35;2.88;;;17.70;99.90;;;;;;5033230;28;20270;-65
2022/10/24 08:22:51;;;;;;;6.78;2.72;;;17.80;99.90;;;;;;5033490;28;20294;-65
2022/10/24 08:25:17;;;;;;;6.88;2.60;;;17.80;99.90;;;;;;5035265;28;20195;-65
2022/10/24 08:27:43;;;;;;;8.25;2.60;;;17.80;99.90;;;;;;5034541;28;20237;-65
2022/10/24 08:30:09;;;;;;;10.93;3.03;;;17.70;99.90;;;;;;5034736;28;20198;-65
2022/10/24 08:32:37;;;;;;;4.53;2.35;;;17.60;99.90;;;;;;5034213;28;20224;-64
2022/10/24 08:35:03;;;;;;;12.40;3.00;;;17.60;99.90;;;;;;5034212;28;20191;-64
2022/10/24 08:37:29;;;;;;;7.97;2.58;;;17.50;99.90;;;;;;5034329;28;20179;-65
2022/10/24 08:39:54;;;;;;;4.32;2.40;;;17.50;99.90;;;;;;5035007;28;20766;-65
2022/10/24 08:42:23;;;;;;;5.38;2.97;;;17.50;99.90;;;;;;5034329;28;20171;-65
2022/10/24 08:44:50;;;;;;;6.22;2.33;;;17.50;99.90;;;;;;5034308;28;20221;-65
2022/10/24 08:47:22;;;;;;;9.57;2.92;;;17.50;99.90;;;;;;5034179;28;20182;-65
2022/10/24 08:49:57;;;;;;;8.48;3.00;;;17.40;99.90;;;;;;5032799;28;20171;-65
2022/10/24 08:53:04;;;;;;;9.77;2.72;;;17.40;99.90;;;;;;5034071;28;20171;-64
2022/10/24 08:55:54;;;;;;;3.80;2.33;;;17.40;99.90;;;;;;5024707;28;20302;-64
2022/10/24 08:58:25;;;;;;;5.75;2.78;;;17.40;99.90;;;;;;5034247;28;20186;-64
2022/10/24 09:00:53;;;;;;;6.85;2.65;;;17.50;99.90;;;;;;5034241;28;20194;-64
2022/10/24 09:03:21;;;;;;;6.25;2.53;;;17.50;99.90;;;;;;5033679;28;20285;-65
2022/10/24 09:05:55;;;;;;;8.88;3.00;;;17.50;99.90;;;;;;5033977;28;20585;-64
2022/10/24 09:08:28;;;;;;;5.05;2.58;;;17.30;99.90;;;;;;5032584;28;20262;-64
2022/10/24 09:11:02;;;;;;;6.95;2.45;;;17.30;99.90;;;;;;5034047;28;20306;-64
2022/10/24 09:13:29;;;;;;;7.68;3.17;;;17.10;99.90;;;;;;5033769;28;20191;-64
2022/10/24 09:15:55;;;;;;;4.40;2.40;;;17.10;99.90;;;;;;5033928;28;20179;-64
2022/10/24 09:18:37;;;;;;;9.70;2.92;;;17.10;99.90;;;;;;5033621;28;20189;-64
2022/10/24 09:21:06;;;;;;;5.78;2.55;;;17.10;99.90;;;;;;5034205;28;20195;-64
2022/10/24 09:23:34;;;;;;;11.27;2.90;;;17.10;99.90;;;;;;5033669;28;20282;-64
2022/10/24 09:26:02;;;;;;;6.90;2.60;;;17.10;99.90;;;;;;5033503;28;20171;-64
2022/10/24 09:28:28;;;;;;;4.20;2.50;;;17.10;99.90;;;;;;5033228;28;20659;-64
2022/10/24 09:30:53;;;;;;;4.53;2.55;;;17.10;99.90;;;;;;5033568;28;20254;-64
2022/10/24 09:33:29;;;;;;;8.25;2.50;;;17.10;99.90;;;;;;5033369;28;20182;-65
2022/10/24 09:35:58;;;;;;;5.70;3.00;;;17.20;99.90;;;;;;5032137;28;20257;-65
2022/10/24 09:38:25;;;;;;;5.93;2.47;;;17.30;99.90;;;;;;5033746;28;20171;-64
2022/10/24 09:40:54;;;;;;;5.53;2.63;;;17.30;99.90;;;;;;5033473;28;20171;-64
2022/10/24 09:43:31;;;;;;;6.15;2.40;;;17.30;99.90;;;;;;5033054;28;20206;-64
2022/10/24 09:46:02;;;;;;;8.75;3.10;;;17.30;99.90;;;;;;5033512;28;20163;-63
2022/10/24 09:48:50;;;;;;;6.15;2.58;;;17.30;99.90;;;;;;5020619;28;20660;-63
2022/10/24 09:51:41;;;;;;;11.25;2.60;;;17.30;99.90;;;;;;5028679;28;20187;-63
2022/10/24 09:54:19;;;;;;;7.38;2.55;;;17.20;99.90;;;;;;5010716;28;20226;-63
2022/10/24 09:56:53;;;;;;;4.72;2.30;;;17.20;99.90;;;;;;5013456;28;20171;-63
2022/10/24 09:59:32;;;;;;;10.25;3.10;;;17.20;99.90;;;;;;5013759;28;20531;-63
2022/10/24 10:02:18;;;;;;;5.05;2.47;;;17.10;99.90;;;;;;5014060;28;20164;-63
2022/10/24 10:04:52;;;;;;;8.25;2.63;;;17.20;99.90;;;;;;5013376;28;20203;-63
2022/10/24 10:07:24;;;;;;;7.35;2.58;;;17.10;99.90;;;;;;5013695;28;20175;-63
2022/10/24 10:09:56;;;;;;;8.23;2.38;;;17.10;99.90;;;;;;5013366;28;20244;-63
2022/10/24 10:12:31;;;;;;;7.43;2.90;;;17.10;99.90;;;;;;5013667;28;20196;-63
2022/10/24 10:14:59;;;;;;;6.32;2.50;;;17.20;99.90;;;;;;5013268;28;20278;-63
2022/10/24 10:17:27;;;;;;;6.25;2.70;;;17.10;99.90;;;;;;5016086;28;20171;-63
2022/10/24 10:19:54;;;;;;;11.73;2.78;;;17.10;99.90;;;;;;5032803;28;20168;-63
2022/10/24 10:22:30;;;;;;;7.03;2.42;;;17.10;99.90;;;;;;5031598;28;20175;-63
2022/10/24 10:24:57;;;;;;;6.63;2.65;;;17.10;99.90;;;;;;5033192;28;20222;-63
2022/10/24 10:27:31;;;;;;;9.85;2.97;;;17.10;99.90;;;;;;5032968;28;20199;-63
2022/10/24 10:30:15;;;;;;;10.27;2.88;;;17.10;99.90;;;;;;5032893;28;20236;-63
2022/10/24 10:32:50;;;;;;;4.90;2.65;;;17.10;99.90;;;;;;5033158;28;20517;-64
2022/10/24 10:35:31;;;;;;;7.03;2.60;;;17.10;99.90;;;;;;5032970;28;20603;-64
2022/10/24 10:38:08;;;;;;;6.78;2.42;;;17.10;99.90;;;;;;5032898;28;20625;-64
2022/10/24 10:40:44;;;;;;;4.88;2.55;;;17.10;99.90;;;;;;5031646;28;20181;-64
2022/10/24 10:43:33;;;;;;;9.13;3.15;;;17.00;99.90;;;;;;5031407;28;20237;-63
2022/10/24 10:46:02;;;;;;;6.30;2.95;;;17.00;99.90;;;;;;5033315;28;20156;-64
2022/10/24 10:48:53;;;;;;;9.23;2.40;;;17.00;99.90;;;;;;5032672;28;20179;-63
2022/10/24 10:51:34;;;;;;;6.95;2.60;;;17.10;99.90;;;;;;5031514;28;20263;-64
2022/10/24 10:54:06;;;;;;;8.32;2.75;;;17.20;99.90;;;;;;5032647;28;20191;-64
2022/10/24 10:56:41;;;;;;;6.68;2.75;;;17.40;99.90;;;;;;5034969;28;20282;-63
2022/10/24 10:59:28;;;;;;;7.15;3.03;;;17.50;99.90;;;;;;5036103;28;20177;-64
2022/10/24 11:02:02;;;;;;;5.45;2.88;;;17.60;99.90;;;;;;5036073;28;20165;-66
2022/10/24 11:04:53;;;;;;;6.85;2.35;;;17.70;99.90;;;;;;5035603;28;20211;-64
2022/10/24 11:07:47;;;;;;;7.28;2.80;;;17.80;99.90;;;;;;5034850;28;20185;-64
2022/10/24 11:10:19;;;;;;;5.22;2.28;;;17.70;99.90;;;;;;5037402;28;20155;-66
2022/10/24 11:12:45;;;;;;;9.27;3.45;;;17.70;99.90;;;;;;5036292;28;20160;-63
2022/10/24 11:15:19;;;;;;;7.93;2.35;;;17.50;99.90;;;;;;5034578;28;20674;-63
2022/10/24 11:18:15;;;;;;;5.85;2.75;;;17.50;99.90;;;;;;5035639;28;20731;-63
2022/10/24 11:20:51;;;;;;;5.82;2.83;;;17.40;99.90;;;;;;5035805;28;20690;-63
2022/10/24 11:23:45;;;;;;;5.13;2.38;;;17.40;99.90;;;;;;5035683;28;20229;-65
2022/10/24 11:26:30;;;;;;;11.13;2.70;;;17.40;99.90;;;;;;5035776;28;20159;-63
2022/10/24 11:29:01;;;;;;;7.25;2.38;;;17.40;99.90;;;;;;5035562;28;20274;-63
2022/10/24 11:31:40;;;;;;;8.82;2.58;;;17.30;99.90;;;;;;5034389;28;20182;-63
2022/10/24 11:34:11;;;;;;;7.82;2.63;;;17.30;99.90;;;;;;5035665;28;20508;-63
2022/10/24 11:36:45;;;;;;;4.93;2.60;;;17.40;99.90;;;;;;5035511;28;20164;-63
2022/10/24 11:39:32;;;;;;;6.75;2.22;;;17.30;99.90;;;;;;5035354;28;20209;-63
2022/10/24 11:42:19;;;;;;;7.88;2.25;;;17.40;99.90;;;;;;5035288;28;20210;-63
2022/10/24 11:45:00;;;;;;;4.15;2.50;;;17.30;99.90;;;;;;5035226;28;20203;-63
2022/10/24 11:47:25;;;;;;;5.68;2.67;;;17.30;99.90;;;;;;5035293;28;20207;-64
2022/10/24 11:50:03;;;;;;;5.63;2.35;;;17.30;99.90;;;;;;5035113;28;20203;-63
2022/10/24 11:52:34;;;;;;;7.22;2.45;;;17.30;99.90;;;;;;5035179;28;20245;-64
2022/10/24 11:55:17;;;;;;;4.78;2.28;;;17.30;99.90;;;;;;5035185;28;20190;-64
2022/10/24 11:57:47;;;;;;;4.60;2.10;;;17.30;99.90;;;;;;5033885;28;20178;-63
2022/10/24 12:00:23;;;;;;;5.53;2.58;;;17.40;99.90;;;;;;5035066;28;20168;-63
2022/10/24 12:03:01;;;;;;;7.47;2.40;;;17.40;99.90;;;;;;5034998;28;20179;-63
2022/10/24 12:06:07;;;;;;;4.88;2.30;;;17.40;99.90;;;;;;5034829;28;20186;-63
2022/10/24 12:08:39;;;;;;;5.53;2.50;;;17.40;99.90;;;;;;5003729;28;20241;-64
2022/10/24 12:11:42;;;;;;;10.48;2.55;;;17.40;99.90;;;;;;5034929;28;20160;-63
2022/10/24 12:14:10;;;;;;;3.60;2.20;;;17.50;99.90;;;;;;5034777;28;20577;-64
2022/10/24 12:16:45;;;;;;;6.80;2.45;;;17.40;99.90;;;;;;5033478;28;20223;-63
2022/10/24 12:19:15;;;;;;;8.98;2.75;;;17.40;99.90;;;;;;5015909;28;20256;-64
2022/10/24 12:21:57;;;;;;;9.05;2.60;;;17.40;99.90;;;;;;5014856;28;20176;-63
2022/10/24 12:24:29;;;;;;;8.25;2.40;;;17.30;99.90;;;;;;5013502;28;20211;-63
2022/10/24 12:27:17;;;;;;;6.00;2.28;;;17.30;99.90;;;;;;5015086;28;20515;-63
2022/10/24 12:29:43;;;;;;;6.00;2.28;;;17.30;99.90;;;;;;5015401;28;20629;-63
2022/10/24 12:32:39;;;;;;;8.10;2.70;;;17.30;99.90;;;;;;5015385;28;20247;-64
2022/10/24 12:35:32;;;;;;;6.00;2.75;;;17.30;99.90;;;;;;5014594;28;20555;-63
2022/10/24 12:38:00;;;;;;;8.95;2.67;;;17.30;99.90;;;;;;5014373;28;20164;-63
2022/10/24 12:40:44;;;;;;;8.60;2.20;;;17.30;99.90;;;;;;5014601;28;20225;-63
2022/10/24 12:43:12;;;;;;;8.88;2.50;;;17.40;99.90;;;;;;5014515;28;20227;-63
2022/10/24 12:45:38;;;;;;;7.30;2.45;;;17.50;99.90;;;;;;5029671;28;20195;-63
2022/10/24 12:48:24;;;;;;;6.25;2.38;;;17.60;99.90;;;;;;5022862;28;20182;-63
2022/10/24 12:51:16;;;;;;;5.20;2.22;;;17.50;99.90;;;;;;5034128;28;20156;-63
2022/10/24 12:54:02;;;;;;;8.85;2.60;;;17.50;99.90;;;;;;5032261;28;20210;-64
2022/10/24 12:56:29;;;;;;;4.72;2.20;;;17.50;99.90;;;;;;5032885;28;20179;-63
2022/10/24 12:59:01;;;;;;;14.38;2.90;;;17.60;99.90;;;;;;5034167;28;20667;-63
2022/10/24 13:01:36;;;;;;;9.48;2.75;;;17.60;99.90;;;;;;5034037;28;20647;-63
2022/10/24 13:04:16;;;;;;;7.63;2.28;;;17.80;99.90;;;;;;5033719;28;20253;-64